sensor_id;sensor_type;location;lat;lon;timestamp;temperature;humidity
76967;DHT22;65904;52.278;20.972;2023-06-14T00:03:03;13.20;99.90
76967;DHT22;65904;52.278;20.972;2023-06-14T00:05:50;13.10;99.90
76967;DHT22;65904;52.278;20.972;2023-06-14T00:08:36;13.20;99.90
76967;DHT22;65904;52.278;20.972;2023-06-14T00:11:22;13.20;99.90
76967;DHT22;65904;52.278;20.972;2023-06-14T00:14:09;13.20;99.90
76967;DHT22;65904;52.278;20.972;2023-06-14T00:16:55;13.20;99.90
76967;DHT22;65904;52.278;20.972;2023-06-14T00:19:45;13.20;99.90
76967;DHT22;65904;52.278;20.972;2023-06-14T00:22:32;13.20;99.90
76967;DHT22;65904;52.278;20.972;2023-06-14T00:25:18;13.10;99.90
76967;DHT22;65904;52.278;20.972;2023-06-14T00:28:05;13.20;99.90
76967;DHT22;65904;52.278;20.972;2023-06-14T00:30:51;13.20;99.90
76967;DHT22;65904;52.278;20.972;2023-06-14T00:33:37;13.20;99.90
76967;DHT22;65904;52.278;20.972;2023-06-14T00:36:25;13.20;99.90
76967;DHT22;65904;52.278;20.972;2023-06-14T00:39:11;13.10;99.90
76967;DHT22;65904;52.278;20.972;2023-06-14T00:41:57;13.20;99.90
76967;DHT22;65904;52.278;20.972;2023-06-14T00:44:44;13.20;99.90
76967;DHT22;65904;52.278;20.972;2023-06-14T00:47:30;13.20;99.90
76967;DHT22;65904;52.278;20.972;2023-06-14T00:50:17;13.20;99.90
76967;DHT22;65904;52.278;20.972;2023-06-14T00:53:04;13.20;99.90
76967;DHT22;65904;52.278;20.972;2023-06-14T00:55:51;13.20;99.90
76967;DHT22;65904;52.278;20.972;2023-06-14T00:58:37;13.10;99.90
76967;DHT22;65904;52.278;20.972;2023-06-14T01:01:23;13.10;99.90
76967;DHT22;65904;52.278;20.972;2023-06-14T01:04:09;13.20;99.90
76967;DHT22;65904;52.278;20.972;2023-06-14T01:07:01;13.10;99.90
76967;DHT22;65904;52.278;20.972;2023-06-14T01:10:12;13.20;99.90
76967;DHT22;65904;52.278;20.972;2023-06-14T01:13:07;13.20;99.90
76967;DHT22;65904;52.278;20.972;2023-06-14T01:15:55;13.20;99.90
76967;DHT22;65904;52.278;20.972;2023-06-14T01:18:43;13.20;99.90
76967;DHT22;65904;52.278;20.972;2023-06-14T01:21:32;13.20;99.90
76967;DHT22;65904;52.278;20.972;2023-06-14T01:24:28;13.20;99.90
76967;DHT22;65904;52.278;20.972;2023-06-14T01:27:17;13.20;99.90
76967;DHT22;65904;52.278;20.972;2023-06-14T01:30:05;13.20;99.90
76967;DHT22;65904;52.278;20.972;2023-06-14T01:32:52;13.10;99.90
76967;DHT22;65904;52.278;20.972;2023-06-14T01:35:40;13.20;99.90
76967;DHT22;65904;52.278;20.972;2023-06-14T01:38:27;13.20;99.90
76967;DHT22;65904;52.278;20.972;2023-06-14T01:41:18;13.20;99.90
76967;DHT22;65904;52.278;20.972;2023-06-14T01:44:06;13.20;99.90
76967;DHT22;65904;52.278;20.972;2023-06-14T01:46:53;13.30;99.90
76967;DHT22;65904;52.278;20.972;2023-06-14T01:49:41;13.30;99.90
76967;DHT22;65904;52.278;20.972;2023-06-14T01:52:27;13.30;99.90
76967;DHT22;65904;52.278;20.972;2023-06-14T01:55:14;13.30;99.90
76967;DHT22;65904;52.278;20.972;2023-06-14T01:58:04;13.30;99.90
76967;DHT22;65904;52.278;20.972;2023-06-14T02:00:50;13.30;99.90
76967;DHT22;65904;52.278;20.972;2023-06-14T02:03:40;13.30;99.90
76967;DHT22;65904;52.278;20.972;2023-06-14T02:06:27;13.30;99.90
76967;DHT22;65904;52.278;20.972;2023-06-14T02:09:14;13.30;99.90
76967;DHT22;65904;52.278;20.972;2023-06-14T02:12:00;13.20;99.90
76967;DHT22;65904;52.278;20.972;2023-06-14T02:14:49;13.20;99.90
76967;DHT22;65904;52.278;20.972;2023-06-14T02:17:35;13.20;99.90
76967;DHT22;65904;52.278;20.972;2023-06-14T02:20:24;13.20;99.90
76967;DHT22;65904;52.278;20.972;2023-06-14T02:23:10;13.20;99.90
76967;DHT22;65904;52.278;20.972;2023-06-14T02:25:57;13.30;99.90
76967;DHT22;65904;52.278;20.972;2023-06-14T02:28:44;13.30;99.90
76967;DHT22;65904;52.278;20.972;2023-06-14T02:31:33;13.30;99.90
76967;DHT22;65904;52.278;20.972;2023-06-14T02:34:19;13.30;99.90
76967;DHT22;65904;52.278;20.972;2023-06-14T02:37:07;13.40;99.90
76967;DHT22;65904;52.278;20.972;2023-06-14T02:39:53;13.40;99.90
76967;DHT22;65904;52.278;20.972;2023-06-14T02:42:40;13.40;99.90
76967;DHT22;65904;52.278;20.972;2023-06-14T02:45:25;13.50;99.90
76967;DHT22;65904;52.278;20.972;2023-06-14T02:48:14;13.40;99.90
76967;DHT22;65904;52.278;20.972;2023-06-14T02:51:00;13.50;99.90
76967;DHT22;65904;52.278;20.972;2023-06-14T02:53:46;13.50;99.90
76967;DHT22;65904;52.278;20.972;2023-06-14T02:56:32;13.50;99.90
76967;DHT22;65904;52.278;20.972;2023-06-14T02:59:18;13.50;99.90
76967;DHT22;65904;52.278;20.972;2023-06-14T03:02:06;13.50;99.90
76967;DHT22;65904;52.278;20.972;2023-06-14T03:04:55;13.50;99.90
76967;DHT22;65904;52.278;20.972;2023-06-14T03:07:47;13.50;99.90
76967;DHT22;65904;52.278;20.972;2023-06-14T03:10:36;13.50;99.90
76967;DHT22;65904;52.278;20.972;2023-06-14T03:13:24;13.50;99.90
76967;DHT22;65904;52.278;20.972;2023-06-14T03:16:12;13.50;99.90
76967;DHT22;65904;52.278;20.972;2023-06-14T03:18:59;13.60;99.90
76967;DHT22;65904;52.278;20.972;2023-06-14T03:21:51;13.60;99.90
76967;DHT22;65904;52.278;20.972;2023-06-14T03:24:37;13.60;99.90
76967;DHT22;65904;52.278;20.972;2023-06-14T03:27:28;13.60;99.90
76967;DHT22;65904;52.278;20.972;2023-06-14T03:30:15;13.70;99.90
76967;DHT22;65904;52.278;20.972;2023-06-14T03:33:03;13.70;99.90
76967;DHT22;65904;52.278;20.972;2023-06-14T03:35:52;13.70;99.90
76967;DHT22;65904;52.278;20.972;2023-06-14T03:38:39;13.70;99.90
76967;DHT22;65904;52.278;20.972;2023-06-14T03:41:25;13.70;99.90
76967;DHT22;65904;52.278;20.972;2023-06-14T03:44:15;13.80;99.90
76967;DHT22;65904;52.278;20.972;2023-06-14T03:47:01;13.80;99.90
76967;DHT22;65904;52.278;20.972;2023-06-14T03:49:47;13.80;99.90
76967;DHT22;65904;52.278;20.972;2023-06-14T03:52:33;13.80;99.90
76967;DHT22;65904;52.278;20.972;2023-06-14T03:55:21;13.80;99.90
76967;DHT22;65904;52.278;20.972;2023-06-14T03:58:10;13.80;99.90
76967;DHT22;65904;52.278;20.972;2023-06-14T04:00:58;13.90;99.90
76967;DHT22;65904;52.278;20.972;2023-06-14T04:03:45;14.00;99.90
76967;DHT22;65904;52.278;20.972;2023-06-14T04:06:32;14.00;99.90
76967;DHT22;65904;52.278;20.972;2023-06-14T04:09:18;14.00;99.90
76967;DHT22;65904;52.278;20.972;2023-06-14T04:12:07;14.10;99.90
76967;DHT22;65904;52.278;20.972;2023-06-14T04:14:54;14.10;99.90
76967;DHT22;65904;52.278;20.972;2023-06-14T04:17:40;14.10;99.90
76967;DHT22;65904;52.278;20.972;2023-06-14T04:20:26;14.20;99.90
76967;DHT22;65904;52.278;20.972;2023-06-14T04:23:12;14.20;99.90
76967;DHT22;65904;52.278;20.972;2023-06-14T04:25:59;14.30;99.90
76967;DHT22;65904;52.278;20.972;2023-06-14T04:28:49;14.30;99.90
76967;DHT22;65904;52.278;20.972;2023-06-14T04:31:36;14.50;99.90
76967;DHT22;65904;52.278;20.972;2023-06-14T04:34:25;14.40;99.90
76967;DHT22;65904;52.278;20.972;2023-06-14T04:37:15;14.40;99.90
76967;DHT22;65904;52.278;20.972;2023-06-14T04:40:02;14.40;99.90
76967;DHT22;65904;52.278;20.972;2023-06-14T04:42:50;14.40;99.90
76967;DHT22;65904;52.278;20.972;2023-06-14T04:45:40;14.50;99.90
76967;DHT22;65904;52.278;20.972;2023-06-14T04:48:29;14.50;99.90
76967;DHT22;65904;52.278;20.972;2023-06-14T04:51:16;14.60;99.90
76967;DHT22;65904;52.278;20.972;2023-06-14T04:54:05;14.60;99.90
76967;DHT22;65904;52.278;20.972;2023-06-14T04:56:55;14.70;99.90
76967;DHT22;65904;52.278;20.972;2023-06-14T04:59:44;14.70;99.90
76967;DHT22;65904;52.278;20.972;2023-06-14T05:02:32;14.70;99.90
76967;DHT22;65904;52.278;20.972;2023-06-14T05:05:18;14.70;99.90
76967;DHT22;65904;52.278;20.972;2023-06-14T05:08:05;14.70;99.90
76967;DHT22;65904;52.278;20.972;2023-06-14T05:10:51;14.80;99.90
76967;DHT22;65904;52.278;20.972;2023-06-14T05:13:37;14.80;99.90
76967;DHT22;65904;52.278;20.972;2023-06-14T05:16:24;14.80;99.90
76967;DHT22;65904;52.278;20.972;2023-06-14T05:19:15;14.80;99.90
76967;DHT22;65904;52.278;20.972;2023-06-14T05:22:03;14.80;99.90
76967;DHT22;65904;52.278;20.972;2023-06-14T05:24:49;14.80;99.90
76967;DHT22;65904;52.278;20.972;2023-06-14T05:27:35;14.80;99.90
76967;DHT22;65904;52.278;20.972;2023-06-14T05:30:22;14.90;99.90
76967;DHT22;65904;52.278;20.972;2023-06-14T05:33:08;15.00;99.90
76967;DHT22;65904;52.278;20.972;2023-06-14T05:35:56;15.00;99.90
76967;DHT22;65904;52.278;20.972;2023-06-14T05:38:42;15.00;99.90
76967;DHT22;65904;52.278;20.972;2023-06-14T05:41:29;14.90;99.90
76967;DHT22;65904;52.278;20.972;2023-06-14T05:44:15;15.00;99.90
76967;DHT22;65904;52.278;20.972;2023-06-14T05:47:01;15.20;99.90
76967;DHT22;65904;52.278;20.972;2023-06-14T05:49:47;15.30;99.90
76967;DHT22;65904;52.278;20.972;2023-06-14T05:52:35;15.30;99.90
76967;DHT22;65904;52.278;20.972;2023-06-14T05:55:21;15.40;99.90
76967;DHT22;65904;52.278;20.972;2023-06-14T05:58:07;15.40;99.90
76967;DHT22;65904;52.278;20.972;2023-06-14T06:00:53;15.50;99.90
76967;DHT22;65904;52.278;20.972;2023-06-14T06:03:39;15.50;99.90
76967;DHT22;65904;52.278;20.972;2023-06-14T06:06:26;15.70;99.90
76967;DHT22;65904;52.278;20.972;2023-06-14T06:09:14;15.70;99.90
76967;DHT22;65904;52.278;20.972;2023-06-14T06:12:00;15.80;99.90
76967;DHT22;65904;52.278;20.972;2023-06-14T06:14:47;15.80;99.90
76967;DHT22;65904;52.278;20.972;2023-06-14T06:17:33;15.90;99.90
76967;DHT22;65904;52.278;20.972;2023-06-14T06:20:19;15.90;99.90
76967;DHT22;65904;52.278;20.972;2023-06-14T06:23:06;16.00;99.90
76967;DHT22;65904;52.278;20.972;2023-06-14T06:25:54;16.20;99.90
76967;DHT22;65904;52.278;20.972;2023-06-14T06:28:40;16.30;99.90
76967;DHT22;65904;52.278;20.972;2023-06-14T06:31:27;16.40;99.90
76967;DHT22;65904;52.278;20.972;2023-06-14T06:34:13;16.40;99.90
76967;DHT22;65904;52.278;20.972;2023-06-14T06:36:59;16.40;99.90
76967;DHT22;65904;52.278;20.972;2023-06-14T06:39:46;16.40;99.90
76967;DHT22;65904;52.278;20.972;2023-06-14T06:42:34;16.40;99.90
76967;DHT22;65904;52.278;20.972;2023-06-14T06:45:22;16.40;99.90
76967;DHT22;65904;52.278;20.972;2023-06-14T06:48:10;16.40;99.90
76967;DHT22;65904;52.278;20.972;2023-06-14T06:50:56;16.60;99.90
76967;DHT22;65904;52.278;20.972;2023-06-14T06:53:42;16.70;99.90
76967;DHT22;65904;52.278;20.972;2023-06-14T06:56:29;16.80;99.90
76967;DHT22;65904;52.278;20.972;2023-06-14T06:59:18;16.90;99.90
76967;DHT22;65904;52.278;20.972;2023-06-14T07:02:05;17.00;99.90
76967;DHT22;65904;52.278;20.972;2023-06-14T07:04:52;16.80;99.90
76967;DHT22;65904;52.278;20.972;2023-06-14T07:07:38;16.50;99.90
76967;DHT22;65904;52.278;20.972;2023-06-14T07:10:25;16.50;99.90
76967;DHT22;65904;52.278;20.972;2023-06-14T07:13:12;16.60;99.90
76967;DHT22;65904;52.278;20.972;2023-06-14T07:16:01;16.60;99.90
76967;DHT22;65904;52.278;20.972;2023-06-14T07:18:48;16.50;99.90
76967;DHT22;65904;52.278;20.972;2023-06-14T07:21:34;16.50;99.90
76967;DHT22;65904;52.278;20.972;2023-06-14T07:24:22;16.50;99.90
76967;DHT22;65904;52.278;20.972;2023-06-14T07:27:08;16.60;99.90
76967;DHT22;65904;52.278;20.972;2023-06-14T07:29:55;16.80;99.90
76967;DHT22;65904;52.278;20.972;2023-06-14T07:32:43;16.90;99.90
76967;DHT22;65904;52.278;20.972;2023-06-14T07:35:29;17.20;99.90
76967;DHT22;65904;52.278;20.972;2023-06-14T07:38:15;17.20;99.90
76967;DHT22;65904;52.278;20.972;2023-06-14T07:41:01;17.40;99.90
76967;DHT22;65904;52.278;20.972;2023-06-14T07:43:48;17.60;99.90
76967;DHT22;65904;52.278;20.972;2023-06-14T07:46:34;17.40;99.90
76967;DHT22;65904;52.278;20.972;2023-06-14T07:49:22;17.60;99.90
76967;DHT22;65904;52.278;20.972;2023-06-14T07:52:08;17.70;99.90
76967;DHT22;65904;52.278;20.972;2023-06-14T07:54:56;18.00;99.90
76967;DHT22;65904;52.278;20.972;2023-06-14T07:57:42;17.90;99.90
76967;DHT22;65904;52.278;20.972;2023-06-14T08:00:29;17.80;99.90
76967;DHT22;65904;52.278;20.972;2023-06-14T08:03:16;17.90;99.90
76967;DHT22;65904;52.278;20.972;2023-06-14T08:06:07;17.90;99.90
76967;DHT22;65904;52.278;20.972;2023-06-14T08:08:53;17.90;99.90
76967;DHT22;65904;52.278;20.972;2023-06-14T08:11:40;17.90;99.90
76967;DHT22;65904;52.278;20.972;2023-06-14T08:14:26;18.10;99.90
76967;DHT22;65904;52.278;20.972;2023-06-14T08:17:13;18.30;99.90
76967;DHT22;65904;52.278;20.972;2023-06-14T08:19:59;18.40;99.90
76967;DHT22;65904;52.278;20.972;2023-06-14T08:22:47;18.50;99.90
76967;DHT22;65904;52.278;20.972;2023-06-14T08:25:33;18.50;99.90
76967;DHT22;65904;52.278;20.972;2023-06-14T08:28:20;18.70;99.90
76967;DHT22;65904;52.278;20.972;2023-06-14T08:31:06;18.70;99.90
76967;DHT22;65904;52.278;20.972;2023-06-14T08:33:52;19.00;99.90
76967;DHT22;65904;52.278;20.972;2023-06-14T08:36:38;19.10;99.90
76967;DHT22;65904;52.278;20.972;2023-06-14T08:39:27;19.10;99.90
76967;DHT22;65904;52.278;20.972;2023-06-14T08:42:14;19.10;99.90
76967;DHT22;65904;52.278;20.972;2023-06-14T08:45:01;18.80;99.90
76967;DHT22;65904;52.278;20.972;2023-06-14T08:47:47;18.60;99.90
76967;DHT22;65904;52.278;20.972;2023-06-14T08:50:39;18.70;99.90
76967;DHT22;65904;52.278;20.972;2023-06-14T08:53:26;18.70;99.90
76967;DHT22;65904;52.278;20.972;2023-06-14T08:56:13;18.90;99.90
76967;DHT22;65904;52.278;20.972;2023-06-14T08:59:00;19.10;99.90
76967;DHT22;65904;52.278;20.972;2023-06-14T09:01:48;19.50;99.90
76967;DHT22;65904;52.278;20.972;2023-06-14T09:04:37;19.60;99.90
76967;DHT22;65904;52.278;20.972;2023-06-14T09:07:24;19.70;99.90
76967;DHT22;65904;52.278;20.972;2023-06-14T09:10:12;19.90;99.90
76967;DHT22;65904;52.278;20.972;2023-06-14T09:13:00;20.00;99.90
76967;DHT22;65904;52.278;20.972;2023-06-14T09:15:46;20.40;99.90
76967;DHT22;65904;52.278;20.972;2023-06-14T09:18:35;20.70;99.90
76967;DHT22;65904;52.278;20.972;2023-06-14T09:21:21;20.70;99.90
76967;DHT22;65904;52.278;20.972;2023-06-14T09:24:13;20.90;99.90
76967;DHT22;65904;52.278;20.972;2023-06-14T09:27:00;21.00;99.90
76967;DHT22;65904;52.278;20.972;2023-06-14T09:29:47;21.20;99.90
76967;DHT22;65904;52.278;20.972;2023-06-14T09:32:36;21.30;99.90
76967;DHT22;65904;52.278;20.972;2023-06-14T09:35:23;21.40;99.90
76967;DHT22;65904;52.278;20.972;2023-06-14T09:38:09;21.20;99.90
76967;DHT22;65904;52.278;20.972;2023-06-14T09:40:57;21.00;99.90
76967;DHT22;65904;52.278;20.972;2023-06-14T09:43:43;21.00;99.90
76967;DHT22;65904;52.278;20.972;2023-06-14T09:46:33;20.90;99.90
76967;DHT22;65904;52.278;20.972;2023-06-14T09:49:20;20.80;99.90
76967;DHT22;65904;52.278;20.972;2023-06-14T09:52:07;20.70;99.90
76967;DHT22;65904;52.278;20.972;2023-06-14T09:54:59;20.60;99.90
76967;DHT22;65904;52.278;20.972;2023-06-14T09:57:47;20.50;99.90
76967;DHT22;65904;52.278;20.972;2023-06-14T10:00:34;20.60;99.90
76967;DHT22;65904;52.278;20.972;2023-06-14T10:03:28;20.90;99.90
76967;DHT22;65904;52.278;20.972;2023-06-14T10:06:15;20.90;99.90
76967;DHT22;65904;52.278;20.972;2023-06-14T10:09:04;21.30;99.90
76967;DHT22;65904;52.278;20.972;2023-06-14T10:11:51;21.40;99.90
76967;DHT22;65904;52.278;20.972;2023-06-14T10:14:37;21.40;99.90
76967;DHT22;65904;52.278;20.972;2023-06-14T10:17:30;21.50;99.90
76967;DHT22;65904;52.278;20.972;2023-06-14T10:20:27;22.00;99.90
76967;DHT22;65904;52.278;20.972;2023-06-14T10:23:18;22.20;99.90
76967;DHT22;65904;52.278;20.972;2023-06-14T10:26:05;22.60;99.90
76967;DHT22;65904;52.278;20.972;2023-06-14T10:28:59;22.60;99.90
76967;DHT22;65904;52.278;20.972;2023-06-14T10:31:47;22.70;99.90
76967;DHT22;65904;52.278;20.972;2023-06-14T10:34:33;22.80;99.90
76967;DHT22;65904;52.278;20.972;2023-06-14T10:37:21;22.80;99.90
76967;DHT22;65904;52.278;20.972;2023-06-14T10:40:08;22.70;99.90
76967;DHT22;65904;52.278;20.972;2023-06-14T10:42:54;22.80;99.90
76967;DHT22;65904;52.278;20.972;2023-06-14T10:46:13;23.00;99.90
76967;DHT22;65904;52.278;20.972;2023-06-14T10:49:00;23.10;99.90
76967;DHT22;65904;52.278;20.972;2023-06-14T10:51:50;23.00;99.90
76967;DHT22;65904;52.278;20.972;2023-06-14T10:54:38;23.20;99.90
76967;DHT22;65904;52.278;20.972;2023-06-14T10:57:42;23.50;99.90
76967;DHT22;65904;52.278;20.972;2023-06-14T11:00:29;23.50;99.90
76967;DHT22;65904;52.278;20.972;2023-06-14T11:03:40;23.60;99.90
76967;DHT22;65904;52.278;20.972;2023-06-14T11:06:47;23.60;99.90
76967;DHT22;65904;52.278;20.972;2023-06-14T11:10:03;23.80;99.90
76967;DHT22;65904;52.278;20.972;2023-06-14T11:12:51;23.60;99.90
76967;DHT22;65904;52.278;20.972;2023-06-14T11:15:45;23.60;99.90
76967;DHT22;65904;52.278;20.972;2023-06-14T11:18:32;23.80;99.90
76967;DHT22;65904;52.278;20.972;2023-06-14T11:21:18;24.10;99.90
76967;DHT22;65904;52.278;20.972;2023-06-14T11:24:10;24.80;99.90
76967;DHT22;65904;52.278;20.972;2023-06-14T11:26:57;25.60;99.90
76967;DHT22;65904;52.278;20.972;2023-06-14T11:29:48;25.80;99.90
76967;DHT22;65904;52.278;20.972;2023-06-14T11:32:34;26.00;99.90
76967;DHT22;65904;52.278;20.972;2023-06-14T11:35:22;26.50;99.90
76967;DHT22;65904;52.278;20.972;2023-06-14T11:38:10;26.80;99.60
76967;DHT22;65904;52.278;20.972;2023-06-14T11:40:59;27.40;97.90
76967;DHT22;65904;52.278;20.972;2023-06-14T11:43:47;27.70;97.20
76967;DHT22;65904;52.278;20.972;2023-06-14T11:46:34;28.30;95.90
76967;DHT22;65904;52.278;20.972;2023-06-14T11:49:20;29.30;93.80
76967;DHT22;65904;52.278;20.972;2023-06-14T11:52:07;29.30;91.00
76967;DHT22;65904;52.278;20.972;2023-06-14T11:54:54;29.00;90.90
76967;DHT22;65904;52.278;20.972;2023-06-14T11:57:40;29.80;88.80
76967;DHT22;65904;52.278;20.972;2023-06-14T12:00:29;29.70;86.60
76967;DHT22;65904;52.278;20.972;2023-06-14T12:03:15;29.80;85.10
76967;DHT22;65904;52.278;20.972;2023-06-14T12:06:04;28.80;84.30
76967;DHT22;65904;52.278;20.972;2023-06-14T12:08:55;28.30;84.30
76967;DHT22;65904;52.278;20.972;2023-06-14T12:11:41;28.20;81.80
76967;DHT22;65904;52.278;20.972;2023-06-14T12:14:28;28.20;81.80
76967;DHT22;65904;52.278;20.972;2023-06-14T12:17:17;28.20;81.80
76967;DHT22;65904;52.278;20.972;2023-06-14T12:20:07;28.30;83.80
76967;DHT22;65904;52.278;20.972;2023-06-14T12:22:57;28.80;81.60
76967;DHT22;65904;52.278;20.972;2023-06-14T12:25:44;29.30;79.50
76967;DHT22;65904;52.278;20.972;2023-06-14T12:28:31;29.70;74.70
76967;DHT22;65904;52.278;20.972;2023-06-14T12:31:18;30.90;74.40
76967;DHT22;65904;52.278;20.972;2023-06-14T12:34:06;31.70;72.40
76967;DHT22;65904;52.278;20.972;2023-06-14T12:36:53;31.60;71.60
76967;DHT22;65904;52.278;20.972;2023-06-14T12:39:39;32.50;67.70
76967;DHT22;65904;52.278;20.972;2023-06-14T12:42:26;32.90;66.20
76967;DHT22;65904;52.278;20.972;2023-06-14T12:45:12;34.10;62.80
76967;DHT22;65904;52.278;20.972;2023-06-14T12:47:59;34.90;60.80
76967;DHT22;65904;52.278;20.972;2023-06-14T12:50:48;35.10;58.50
76967;DHT22;65904;52.278;20.972;2023-06-14T12:53:35;35.50;56.70
76967;DHT22;65904;52.278;20.972;2023-06-14T12:56:20;35.20;55.70
76967;DHT22;65904;52.278;20.972;2023-06-14T12:59:07;35.10;55.60
76967;DHT22;65904;52.278;20.972;2023-06-14T13:01:53;33.50;54.70
76967;DHT22;65904;52.278;20.972;2023-06-14T13:04:39;34.00;55.50
76967;DHT22;65904;52.278;20.972;2023-06-14T13:07:26;33.30;54.00
76967;DHT22;65904;52.278;20.972;2023-06-14T13:10:12;33.80;54.10
76967;DHT22;65904;52.278;20.972;2023-06-14T13:12:58;34.40;51.00
76967;DHT22;65904;52.278;20.972;2023-06-14T13:15:45;35.00;49.80
76967;DHT22;65904;52.278;20.972;2023-06-14T13:18:31;34.80;49.70
76967;DHT22;65904;52.278;20.972;2023-06-14T13:21:18;35.50;49.10
76967;DHT22;65904;52.278;20.972;2023-06-14T13:24:06;34.80;49.80
76967;DHT22;65904;52.278;20.972;2023-06-14T13:26:52;34.20;49.90
76967;DHT22;65904;52.278;20.972;2023-06-14T13:29:38;33.50;51.40
76967;DHT22;65904;52.278;20.972;2023-06-14T13:32:24;34.30;50.90
76967;DHT22;65904;52.278;20.972;2023-06-14T13:35:10;33.30;52.60
76967;DHT22;65904;52.278;20.972;2023-06-14T13:37:57;33.90;51.20
76967;DHT22;65904;52.278;20.972;2023-06-14T13:40:44;34.00;50.90
76967;DHT22;65904;52.278;20.972;2023-06-14T13:43:31;32.90;51.90
76967;DHT22;65904;52.278;20.972;2023-06-14T13:46:17;31.40;54.60
76967;DHT22;65904;52.278;20.972;2023-06-14T13:49:04;30.60;55.40
76967;DHT22;65904;52.278;20.972;2023-06-14T13:51:50;29.70;57.30
76967;DHT22;65904;52.278;20.972;2023-06-14T13:54:37;29.20;58.50
76967;DHT22;65904;52.278;20.972;2023-06-14T13:57:24;28.10;60.20
76967;DHT22;65904;52.278;20.972;2023-06-14T14:00:13;27.70;62.80
76967;DHT22;65904;52.278;20.972;2023-06-14T14:03:00;29.40;61.20
76967;DHT22;65904;52.278;20.972;2023-06-14T14:05:48;31.00;57.70
76967;DHT22;65904;52.278;20.972;2023-06-14T14:08:35;31.60;55.70
76967;DHT22;65904;52.278;20.972;2023-06-14T14:11:21;32.10;56.00
76967;DHT22;65904;52.278;20.972;2023-06-14T14:14:09;33.60;52.80
76967;DHT22;65904;52.278;20.972;2023-06-14T14:16:56;34.60;52.10
76967;DHT22;65904;52.278;20.972;2023-06-14T14:19:42;33.60;51.50
76967;DHT22;65904;52.278;20.972;2023-06-14T14:22:28;31.60;54.40
76967;DHT22;65904;52.278;20.972;2023-06-14T14:25:14;31.70;55.80
76967;DHT22;65904;52.278;20.972;2023-06-14T14:28:01;31.80;54.10
76967;DHT22;65904;52.278;20.972;2023-06-14T14:30:48;30.70;54.50
76967;DHT22;65904;52.278;20.972;2023-06-14T14:33:35;30.90;57.10
76967;DHT22;65904;52.278;20.972;2023-06-14T14:36:21;31.10;56.50
76967;DHT22;65904;52.278;20.972;2023-06-14T14:39:07;30.00;57.30
76967;DHT22;65904;52.278;20.972;2023-06-14T14:41:54;29.30;59.10
76967;DHT22;65904;52.278;20.972;2023-06-14T14:44:41;29.60;58.70
76967;DHT22;65904;52.278;20.972;2023-06-14T14:47:28;28.90;59.40
76967;DHT22;65904;52.278;20.972;2023-06-14T14:50:15;27.90;61.70
76967;DHT22;65904;52.278;20.972;2023-06-14T14:53:01;27.10;65.60
76967;DHT22;65904;52.278;20.972;2023-06-14T14:55:48;27.20;66.70
76967;DHT22;65904;52.278;20.972;2023-06-14T14:58:35;26.50;68.70
76967;DHT22;65904;52.278;20.972;2023-06-14T15:01:21;26.30;70.90
76967;DHT22;65904;52.278;20.972;2023-06-14T15:04:08;25.60;71.70
76967;DHT22;65904;52.278;20.972;2023-06-14T15:06:55;25.00;74.90
76967;DHT22;65904;52.278;20.972;2023-06-14T15:09:41;24.70;76.90
76967;DHT22;65904;52.278;20.972;2023-06-14T15:12:28;25.00;77.70
76967;DHT22;65904;52.278;20.972;2023-06-14T15:15:14;26.20;76.50
76967;DHT22;65904;52.278;20.972;2023-06-14T15:18:00;26.30;74.30
76967;DHT22;65904;52.278;20.972;2023-06-14T15:20:48;25.90;75.60
76967;DHT22;65904;52.278;20.972;2023-06-14T15:23:35;25.30;75.80
76967;DHT22;65904;52.278;20.972;2023-06-14T15:26:21;24.80;78.50
76967;DHT22;65904;52.278;20.972;2023-06-14T15:29:09;24.70;79.80
76967;DHT22;65904;52.278;20.972;2023-06-14T15:31:56;24.50;79.70
76967;DHT22;65904;52.278;20.972;2023-06-14T15:34:43;24.00;82.50
76967;DHT22;65904;52.278;20.972;2023-06-14T15:37:30;24.20;81.70
76967;DHT22;65904;52.278;20.972;2023-06-14T15:40:16;24.10;82.90
76967;DHT22;65904;52.278;20.972;2023-06-14T15:43:02;23.90;82.70
76967;DHT22;65904;52.278;20.972;2023-06-14T15:45:49;24.00;84.20
76967;DHT22;65904;52.278;20.972;2023-06-14T15:48:35;24.80;84.60
76967;DHT22;65904;52.278;20.972;2023-06-14T15:51:21;25.70;78.10
76967;DHT22;65904;52.278;20.972;2023-06-14T15:54:09;26.60;76.90
76967;DHT22;65904;52.278;20.972;2023-06-14T15:56:55;26.30;73.40
76967;DHT22;65904;52.278;20.972;2023-06-14T15:59:41;25.80;75.40
76967;DHT22;65904;52.278;20.972;2023-06-14T16:02:27;25.50;77.20
76967;DHT22;65904;52.278;20.972;2023-06-14T16:05:14;25.50;77.70
76967;DHT22;65904;52.278;20.972;2023-06-14T16:08:00;25.10;81.50
76967;DHT22;65904;52.278;20.972;2023-06-14T16:10:47;25.10;81.10
76967;DHT22;65904;52.278;20.972;2023-06-14T16:13:34;24.90;82.50
76967;DHT22;65904;52.278;20.972;2023-06-14T16:16:20;24.50;82.00
76967;DHT22;65904;52.278;20.972;2023-06-14T16:19:06;24.10;82.40
76967;DHT22;65904;52.278;20.972;2023-06-14T16:21:53;23.80;82.90
76967;DHT22;65904;52.278;20.972;2023-06-14T16:24:39;23.50;82.60
76967;DHT22;65904;52.278;20.972;2023-06-14T16:27:26;23.40;80.60
76967;DHT22;65904;52.278;20.972;2023-06-14T16:30:13;23.10;79.70
76967;DHT22;65904;52.278;20.972;2023-06-14T16:32:59;22.90;81.00
76967;DHT22;65904;52.278;20.972;2023-06-14T16:35:46;22.90;82.00
76967;DHT22;65904;52.278;20.972;2023-06-14T16:38:32;22.90;82.80
76967;DHT22;65904;52.278;20.972;2023-06-14T16:41:19;22.70;83.60
76967;DHT22;65904;52.278;20.972;2023-06-14T16:44:07;22.60;85.90
76967;DHT22;65904;52.278;20.972;2023-06-14T16:46:53;22.20;87.00
76967;DHT22;65904;52.278;20.972;2023-06-14T16:49:39;22.20;88.70
76967;DHT22;65904;52.278;20.972;2023-06-14T16:52:26;22.20;89.80
76967;DHT22;65904;52.278;20.972;2023-06-14T16:55:11;22.00;90.40
76967;DHT22;65904;52.278;20.972;2023-06-14T16:57:58;21.80;91.10
76967;DHT22;65904;52.278;20.972;2023-06-14T17:00:45;21.80;92.10
76967;DHT22;65904;52.278;20.972;2023-06-14T17:03:32;21.50;93.20
76967;DHT22;65904;52.278;20.972;2023-06-14T17:06:19;21.30;94.90
76967;DHT22;65904;52.278;20.972;2023-06-14T17:09:07;21.20;95.70
76967;DHT22;65904;52.278;20.972;2023-06-14T17:11:53;21.10;97.30
76967;DHT22;65904;52.278;20.972;2023-06-14T17:14:40;21.00;98.60
76967;DHT22;65904;52.278;20.972;2023-06-14T17:17:29;20.80;99.90
76967;DHT22;65904;52.278;20.972;2023-06-14T17:20:15;20.80;99.90
76967;DHT22;65904;52.278;20.972;2023-06-14T17:23:02;20.70;99.90